Valleyford, Washington
Current Conditions -  °F | °C
As of 4:53 AM on Thursday 30 Oct 2014 (Local Time) from KSFF Reporting Station
Overcast Overcast  
Wind Chill: 46°   Ceiling: 8500
Heat Index: 46°   Visibility: 7mi
Dew Point: 44°   Wind: 3mph
Humidity: 93%   Direction: 240°WSW
Pressure: 30.15"   Gusts: NA
Location:  47.53°N, 117.24°W
Report Text: KSFF 301153Z AUTO 24003KT 7SM OVC085 08/07 A3015 RMK AO2 SLP212 T00780067 10089 20067 58008
Loading
Personal Weather Stations






























Interactive Weather Map
Tropical Storm Tracking
New forecast layout! Learn more

10-Day Weather Forecast

Advertisements
Track Severe Weather on mobile